sensor_id;sensor_type;location;lat;lon;timestamp;P1;durP1;ratioP1;P2;durP2;ratioP2
65853;SDS011;52627;48.838;2.402;2023-12-22T00:00:23;9.50;;;2.40;;
65853;SDS011;52627;48.838;2.402;2023-12-22T00:02:50;15.00;;;2.90;;
65853;SDS011;52627;48.838;2.402;2023-12-22T00:05:17;17.00;;;3.20;;
65853;SDS011;52627;48.838;2.402;2023-12-22T00:07:44;9.70;;;2.50;;
65853;SDS011;52627;48.838;2.402;2023-12-22T00:10:11;13.60;;;2.40;;
65853;SDS011;52627;48.838;2.402;2023-12-22T00:12:38;15.80;;;3.70;;
65853;SDS011;52627;48.838;2.402;2023-12-22T00:15:05;16.10;;;2.60;;
65853;SDS011;52627;48.838;2.402;2023-12-22T00:17:32;15.70;;;3.70;;
65853;SDS011;52627;48.838;2.402;2023-12-22T00:19:59;11.50;;;2.50;;
65853;SDS011;52627;48.838;2.402;2023-12-22T00:22:29;11.40;;;2.70;;
65853;SDS011;52627;48.838;2.402;2023-12-22T00:24:56;10.10;;;2.30;;
65853;SDS011;52627;48.838;2.402;2023-12-22T00:27:23;13.00;;;2.40;;
65853;SDS011;52627;48.838;2.402;2023-12-22T00:29:50;15.10;;;3.40;;
65853;SDS011;52627;48.838;2.402;2023-12-22T00:32:17;15.10;;;2.70;;
65853;SDS011;52627;48.838;2.402;2023-12-22T00:34:44;12.20;;;2.80;;
65853;SDS011;52627;48.838;2.402;2023-12-22T00:37:11;13.00;;;2.60;;
65853;SDS011;52627;48.838;2.402;2023-12-22T00:39:39;10.10;;;2.50;;
65853;SDS011;52627;48.838;2.402;2023-12-22T00:42:05;12.20;;;2.40;;
65853;SDS011;52627;48.838;2.402;2023-12-22T00:44:32;12.00;;;2.50;;
65853;SDS011;52627;48.838;2.402;2023-12-22T00:46:59;13.60;;;3.10;;
65853;SDS011;52627;48.838;2.402;2023-12-22T00:49:26;17.60;;;3.60;;
65853;SDS011;52627;48.838;2.402;2023-12-22T00:51:53;13.30;;;2.60;;
65853;SDS011;52627;48.838;2.402;2023-12-22T00:54:20;10.30;;;2.30;;
65853;SDS011;52627;48.838;2.402;2023-12-22T00:56:46;10.80;;;2.60;;
65853;SDS011;52627;48.838;2.402;2023-12-22T00:59:13;13.40;;;2.80;;
65853;SDS011;52627;48.838;2.402;2023-12-22T01:01:40;12.50;;;2.80;;
65853;SDS011;52627;48.838;2.402;2023-12-22T01:04:07;13.40;;;2.50;;
65853;SDS011;52627;48.838;2.402;2023-12-22T01:06:38;14.10;;;2.50;;
65853;SDS011;52627;48.838;2.402;2023-12-22T01:09:05;14.40;;;3.10;;
65853;SDS011;52627;48.838;2.402;2023-12-22T01:11:32;12.60;;;2.70;;
65853;SDS011;52627;48.838;2.402;2023-12-22T01:13:59;12.90;;;2.80;;
65853;SDS011;52627;48.838;2.402;2023-12-22T01:16:26;13.90;;;2.60;;
65853;SDS011;52627;48.838;2.402;2023-12-22T01:18:53;15.70;;;2.70;;
65853;SDS011;52627;48.838;2.402;2023-12-22T01:21:20;13.00;;;3.00;;
65853;SDS011;52627;48.838;2.402;2023-12-22T01:23:46;14.40;;;2.70;;
65853;SDS011;52627;48.838;2.402;2023-12-22T01:26:13;13.40;;;2.80;;
65853;SDS011;52627;48.838;2.402;2023-12-22T01:28:40;13.40;;;3.00;;
65853;SDS011;52627;48.838;2.402;2023-12-22T01:31:07;15.00;;;2.60;;
65853;SDS011;52627;48.838;2.402;2023-12-22T01:33:33;13.00;;;2.90;;
65853;SDS011;52627;48.838;2.402;2023-12-22T01:36:00;14.00;;;2.70;;
65853;SDS011;52627;48.838;2.402;2023-12-22T01:38:27;17.30;;;3.20;;
65853;SDS011;52627;48.838;2.402;2023-12-22T01:40:54;16.00;;;3.00;;
65853;SDS011;52627;48.838;2.402;2023-12-22T01:43:21;14.40;;;2.70;;
65853;SDS011;52627;48.838;2.402;2023-12-22T01:45:50;12.60;;;2.60;;
65853;SDS011;52627;48.838;2.402;2023-12-22T01:48:19;13.80;;;3.00;;
65853;SDS011;52627;48.838;2.402;2023-12-22T01:50:46;11.40;;;2.40;;
65853;SDS011;52627;48.838;2.402;2023-12-22T01:53:13;16.00;;;2.90;;
65853;SDS011;52627;48.838;2.402;2023-12-22T01:55:39;16.30;;;2.90;;
65853;SDS011;52627;48.838;2.402;2023-12-22T01:58:07;14.50;;;2.20;;
65853;SDS011;52627;48.838;2.402;2023-12-22T02:00:34;12.40;;;2.40;;
65853;SDS011;52627;48.838;2.402;2023-12-22T02:03:01;11.40;;;3.00;;
65853;SDS011;52627;48.838;2.402;2023-12-22T02:05:28;11.10;;;2.10;;
65853;SDS011;52627;48.838;2.402;2023-12-22T02:07:56;9.10;;;2.10;;
65853;SDS011;52627;48.838;2.402;2023-12-22T02:10:23;12.20;;;2.50;;
65853;SDS011;52627;48.838;2.402;2023-12-22T02:12:50;12.20;;;2.30;;
65853;SDS011;52627;48.838;2.402;2023-12-22T02:15:17;11.90;;;2.30;;
65853;SDS011;52627;48.838;2.402;2023-12-22T02:18:03;14.80;;;2.40;;
65853;SDS011;52627;48.838;2.402;2023-12-22T02:20:34;10.80;;;2.10;;
65853;SDS011;52627;48.838;2.402;2023-12-22T02:23:01;10.90;;;2.50;;
65853;SDS011;52627;48.838;2.402;2023-12-22T02:25:28;10.60;;;2.30;;
65853;SDS011;52627;48.838;2.402;2023-12-22T02:28:01;12.30;;;2.50;;
65853;SDS011;52627;48.838;2.402;2023-12-22T02:30:49;12.10;;;2.40;;
65853;SDS011;52627;48.838;2.402;2023-12-22T02:33:22;13.20;;;2.70;;
65853;SDS011;52627;48.838;2.402;2023-12-22T02:35:51;8.30;;;2.40;;
65853;SDS011;52627;48.838;2.402;2023-12-22T02:38:20;7.90;;;2.20;;
65853;SDS011;52627;48.838;2.402;2023-12-22T02:40:47;13.30;;;2.00;;
65853;SDS011;52627;48.838;2.402;2023-12-22T02:43:14;12.40;;;2.50;;
65853;SDS011;52627;48.838;2.402;2023-12-22T02:45:41;8.10;;;2.30;;
65853;SDS011;52627;48.838;2.402;2023-12-22T02:48:08;13.30;;;2.50;;
65853;SDS011;52627;48.838;2.402;2023-12-22T02:50:34;11.30;;;2.40;;
65853;SDS011;52627;48.838;2.402;2023-12-22T02:53:01;12.60;;;2.30;;
65853;SDS011;52627;48.838;2.402;2023-12-22T02:55:28;12.20;;;2.50;;
65853;SDS011;52627;48.838;2.402;2023-12-22T02:57:55;14.20;;;2.60;;
65853;SDS011;52627;48.838;2.402;2023-12-22T03:00:22;11.90;;;2.30;;
65853;SDS011;52627;48.838;2.402;2023-12-22T03:02:49;10.80;;;2.40;;
65853;SDS011;52627;48.838;2.402;2023-12-22T03:05:15;14.40;;;2.30;;
65853;SDS011;52627;48.838;2.402;2023-12-22T03:07:42;11.70;;;2.30;;
65853;SDS011;52627;48.838;2.402;2023-12-22T03:10:09;10.90;;;2.20;;
65853;SDS011;52627;48.838;2.402;2023-12-22T03:12:36;10.70;;;2.20;;
65853;SDS011;52627;48.838;2.402;2023-12-22T03:15:03;13.50;;;2.70;;
65853;SDS011;52627;48.838;2.402;2023-12-22T03:17:31;11.20;;;2.40;;
65853;SDS011;52627;48.838;2.402;2023-12-22T03:19:58;11.50;;;2.30;;
65853;SDS011;52627;48.838;2.402;2023-12-22T03:22:25;13.50;;;2.20;;
65853;SDS011;52627;48.838;2.402;2023-12-22T03:24:52;9.60;;;2.60;;
65853;SDS011;52627;48.838;2.402;2023-12-22T03:27:19;12.70;;;2.70;;
65853;SDS011;52627;48.838;2.402;2023-12-22T03:29:46;9.90;;;2.20;;
65853;SDS011;52627;48.838;2.402;2023-12-22T03:32:13;12.00;;;2.30;;
65853;SDS011;52627;48.838;2.402;2023-12-22T03:34:40;12.40;;;2.80;;
65853;SDS011;52627;48.838;2.402;2023-12-22T03:37:08;8.70;;;2.20;;
65853;SDS011;52627;48.838;2.402;2023-12-22T03:39:34;10.50;;;2.20;;
65853;SDS011;52627;48.838;2.402;2023-12-22T03:42:01;10.30;;;2.10;;
65853;SDS011;52627;48.838;2.402;2023-12-22T03:44:28;9.30;;;2.20;;
65853;SDS011;52627;48.838;2.402;2023-12-22T03:46:55;12.10;;;2.40;;
65853;SDS011;52627;48.838;2.402;2023-12-22T03:49:22;11.80;;;2.70;;
65853;SDS011;52627;48.838;2.402;2023-12-22T03:51:49;13.00;;;2.60;;
65853;SDS011;52627;48.838;2.402;2023-12-22T03:54:16;15.30;;;3.10;;
65853;SDS011;52627;48.838;2.402;2023-12-22T03:56:44;12.10;;;2.90;;
65853;SDS011;52627;48.838;2.402;2023-12-22T03:59:10;12.50;;;2.80;;
65853;SDS011;52627;48.838;2.402;2023-12-22T04:01:37;11.00;;;1.90;;
65853;SDS011;52627;48.838;2.402;2023-12-22T04:04:04;16.50;;;3.50;;
65853;SDS011;52627;48.838;2.402;2023-12-22T04:06:31;12.40;;;3.00;;
65853;SDS011;52627;48.838;2.402;2023-12-22T04:08:58;9.60;;;2.50;;
65853;SDS011;52627;48.838;2.402;2023-12-22T04:11:24;13.10;;;2.50;;
65853;SDS011;52627;48.838;2.402;2023-12-22T04:13:51;10.00;;;2.20;;
65853;SDS011;52627;48.838;2.402;2023-12-22T04:16:18;11.10;;;2.60;;
65853;SDS011;52627;48.838;2.402;2023-12-22T04:18:45;10.90;;;2.50;;
65853;SDS011;52627;48.838;2.402;2023-12-22T04:21:12;8.70;;;2.40;;
65853;SDS011;52627;48.838;2.402;2023-12-22T04:23:38;9.80;;;1.90;;
65853;SDS011;52627;48.838;2.402;2023-12-22T04:26:05;10.70;;;2.10;;
65853;SDS011;52627;48.838;2.402;2023-12-22T04:28:32;9.90;;;1.90;;
65853;SDS011;52627;48.838;2.402;2023-12-22T04:30:59;9.90;;;2.10;;
65853;SDS011;52627;48.838;2.402;2023-12-22T04:33:25;5.70;;;1.40;;
65853;SDS011;52627;48.838;2.402;2023-12-22T04:35:52;8.10;;;1.50;;
65853;SDS011;52627;48.838;2.402;2023-12-22T04:38:19;7.20;;;1.60;;
65853;SDS011;52627;48.838;2.402;2023-12-22T04:40:46;10.70;;;1.80;;
65853;SDS011;52627;48.838;2.402;2023-12-22T04:43:13;7.00;;;1.70;;
65853;SDS011;52627;48.838;2.402;2023-12-22T04:45:39;9.80;;;1.60;;
65853;SDS011;52627;48.838;2.402;2023-12-22T04:48:06;9.90;;;1.80;;
65853;SDS011;52627;48.838;2.402;2023-12-22T04:50:33;9.90;;;1.80;;
65853;SDS011;52627;48.838;2.402;2023-12-22T04:53:00;7.70;;;1.60;;
65853;SDS011;52627;48.838;2.402;2023-12-22T04:55:27;9.50;;;1.40;;
65853;SDS011;52627;48.838;2.402;2023-12-22T04:57:54;8.70;;;1.60;;
65853;SDS011;52627;48.838;2.402;2023-12-22T05:00:20;9.20;;;1.70;;
65853;SDS011;52627;48.838;2.402;2023-12-22T05:02:47;8.20;;;1.40;;
65853;SDS011;52627;48.838;2.402;2023-12-22T05:05:14;11.70;;;1.90;;
65853;SDS011;52627;48.838;2.402;2023-12-22T05:07:41;8.40;;;1.40;;
65853;SDS011;52627;48.838;2.402;2023-12-22T05:10:08;7.80;;;1.60;;
65853;SDS011;52627;48.838;2.402;2023-12-22T05:12:35;9.80;;;1.60;;
65853;SDS011;52627;48.838;2.402;2023-12-22T05:15:02;8.60;;;1.50;;
65853;SDS011;52627;48.838;2.402;2023-12-22T05:17:29;10.10;;;2.10;;
65853;SDS011;52627;48.838;2.402;2023-12-22T05:19:56;6.60;;;1.80;;
65853;SDS011;52627;48.838;2.402;2023-12-22T05:22:22;9.60;;;2.40;;
65853;SDS011;52627;48.838;2.402;2023-12-22T05:24:50;8.80;;;1.50;;
65853;SDS011;52627;48.838;2.402;2023-12-22T05:27:18;8.10;;;1.90;;
65853;SDS011;52627;48.838;2.402;2023-12-22T05:29:44;6.10;;;1.50;;
65853;SDS011;52627;48.838;2.402;2023-12-22T05:32:11;8.50;;;1.70;;
65853;SDS011;52627;48.838;2.402;2023-12-22T05:34:38;8.60;;;1.70;;
65853;SDS011;52627;48.838;2.402;2023-12-22T05:37:05;6.50;;;1.40;;
65853;SDS011;52627;48.838;2.402;2023-12-22T05:39:32;11.20;;;1.80;;
65853;SDS011;52627;48.838;2.402;2023-12-22T05:41:59;8.40;;;1.40;;
65853;SDS011;52627;48.838;2.402;2023-12-22T05:44:25;6.90;;;1.30;;
65853;SDS011;52627;48.838;2.402;2023-12-22T05:46:58;7.00;;;1.30;;
65853;SDS011;52627;48.838;2.402;2023-12-22T05:49:25;5.10;;;1.50;;
65853;SDS011;52627;48.838;2.402;2023-12-22T05:51:52;8.20;;;1.50;;
65853;SDS011;52627;48.838;2.402;2023-12-22T05:54:19;7.70;;;1.30;;
65853;SDS011;52627;48.838;2.402;2023-12-22T05:56:46;5.40;;;1.00;;
65853;SDS011;52627;48.838;2.402;2023-12-22T05:59:14;5.80;;;1.30;;
65853;SDS011;52627;48.838;2.402;2023-12-22T06:01:41;6.90;;;1.10;;
65853;SDS011;52627;48.838;2.402;2023-12-22T06:04:08;8.70;;;1.40;;
65853;SDS011;52627;48.838;2.402;2023-12-22T06:06:36;5.70;;;1.30;;
65853;SDS011;52627;48.838;2.402;2023-12-22T06:09:05;6.00;;;0.90;;
65853;SDS011;52627;48.838;2.402;2023-12-22T06:11:31;8.00;;;1.70;;
65853;SDS011;52627;48.838;2.402;2023-12-22T06:13:58;7.00;;;1.20;;
65853;SDS011;52627;48.838;2.402;2023-12-22T06:16:25;6.10;;;1.20;;
65853;SDS011;52627;48.838;2.402;2023-12-22T06:18:52;6.90;;;1.10;;
65853;SDS011;52627;48.838;2.402;2023-12-22T06:21:19;7.00;;;1.20;;
65853;SDS011;52627;48.838;2.402;2023-12-22T06:23:46;4.70;;;1.40;;
65853;SDS011;52627;48.838;2.402;2023-12-22T06:26:13;5.00;;;1.00;;
65853;SDS011;52627;48.838;2.402;2023-12-22T06:28:40;9.10;;;1.60;;
65853;SDS011;52627;48.838;2.402;2023-12-22T06:31:16;7.60;;;1.30;;
65853;SDS011;52627;48.838;2.402;2023-12-22T06:33:48;7.40;;;1.40;;
65853;SDS011;52627;48.838;2.402;2023-12-22T06:36:22;5.00;;;1.30;;
65853;SDS011;52627;48.838;2.402;2023-12-22T06:38:51;6.40;;;1.50;;
65853;SDS011;52627;48.838;2.402;2023-12-22T06:43:56;6.70;;;1.10;;
65853;SDS011;52627;48.838;2.402;2023-12-22T06:46:24;5.20;;;1.20;;
65853;SDS011;52627;48.838;2.402;2023-12-22T06:48:55;5.30;;;1.20;;
65853;SDS011;52627;48.838;2.402;2023-12-22T06:51:24;8.90;;;1.60;;
65853;SDS011;52627;48.838;2.402;2023-12-22T06:53:57;5.10;;;1.30;;
65853;SDS011;52627;48.838;2.402;2023-12-22T06:56:30;7.50;;;1.60;;
65853;SDS011;52627;48.838;2.402;2023-12-22T06:58:57;8.20;;;1.30;;
65853;SDS011;52627;48.838;2.402;2023-12-22T07:01:27;7.60;;;1.30;;
65853;SDS011;52627;48.838;2.402;2023-12-22T07:03:55;8.00;;;1.40;;
65853;SDS011;52627;48.838;2.402;2023-12-22T07:06:24;6.70;;;1.30;;
65853;SDS011;52627;48.838;2.402;2023-12-22T07:11:48;5.80;;;1.30;;
65853;SDS011;52627;48.838;2.402;2023-12-22T07:14:19;7.00;;;1.50;;
65853;SDS011;52627;48.838;2.402;2023-12-22T07:16:46;8.10;;;1.20;;
65853;SDS011;52627;48.838;2.402;2023-12-22T07:19:13;9.20;;;2.50;;
65853;SDS011;52627;48.838;2.402;2023-12-22T07:21:40;6.30;;;1.90;;
65853;SDS011;52627;48.838;2.402;2023-12-22T07:24:09;7.70;;;1.70;;
65853;SDS011;52627;48.838;2.402;2023-12-22T07:26:36;6.60;;;1.40;;
65853;SDS011;52627;48.838;2.402;2023-12-22T07:29:04;5.90;;;1.40;;
65853;SDS011;52627;48.838;2.402;2023-12-22T07:31:31;6.90;;;1.40;;
65853;SDS011;52627;48.838;2.402;2023-12-22T07:33:57;7.60;;;1.60;;
65853;SDS011;52627;48.838;2.402;2023-12-22T07:36:24;4.30;;;1.70;;
65853;SDS011;52627;48.838;2.402;2023-12-22T07:38:51;5.70;;;1.50;;
65853;SDS011;52627;48.838;2.402;2023-12-22T07:41:18;8.10;;;1.40;;
65853;SDS011;52627;48.838;2.402;2023-12-22T07:43:46;5.90;;;1.50;;
65853;SDS011;52627;48.838;2.402;2023-12-22T07:46:18;6.30;;;1.60;;
65853;SDS011;52627;48.838;2.402;2023-12-22T07:48:45;6.20;;;1.20;;
65853;SDS011;52627;48.838;2.402;2023-12-22T07:51:13;7.00;;;1.40;;
65853;SDS011;52627;48.838;2.402;2023-12-22T07:53:40;8.00;;;1.40;;
65853;SDS011;52627;48.838;2.402;2023-12-22T07:56:07;5.70;;;1.30;;
65853;SDS011;52627;48.838;2.402;2023-12-22T07:58:35;4.80;;;1.30;;
65853;SDS011;52627;48.838;2.402;2023-12-22T08:01:03;7.40;;;1.60;;
65853;SDS011;52627;48.838;2.402;2023-12-22T08:03:31;5.30;;;1.10;;
65853;SDS011;52627;48.838;2.402;2023-12-22T08:05:59;3.00;;;0.90;;
65853;SDS011;52627;48.838;2.402;2023-12-22T08:08:26;4.60;;;1.10;;
65853;SDS011;52627;48.838;2.402;2023-12-22T08:10:53;5.50;;;1.20;;
65853;SDS011;52627;48.838;2.402;2023-12-22T08:13:19;5.50;;;1.30;;
65853;SDS011;52627;48.838;2.402;2023-12-22T08:15:46;5.20;;;1.60;;
65853;SDS011;52627;48.838;2.402;2023-12-22T08:18:13;6.00;;;1.20;;
65853;SDS011;52627;48.838;2.402;2023-12-22T08:20:40;3.80;;;1.00;;
65853;SDS011;52627;48.838;2.402;2023-12-22T08:23:10;3.30;;;0.90;;
65853;SDS011;52627;48.838;2.402;2023-12-22T08:25:39;2.20;;;0.80;;
65853;SDS011;52627;48.838;2.402;2023-12-22T08:28:08;4.20;;;1.10;;
65853;SDS011;52627;48.838;2.402;2023-12-22T08:30:34;3.50;;;1.00;;
65853;SDS011;52627;48.838;2.402;2023-12-22T08:33:02;4.50;;;1.00;;
65853;SDS011;52627;48.838;2.402;2023-12-22T08:35:29;3.30;;;1.10;;
65853;SDS011;52627;48.838;2.402;2023-12-22T08:37:57;2.30;;;0.90;;
65853;SDS011;52627;48.838;2.402;2023-12-22T08:40:24;5.80;;;1.20;;
65853;SDS011;52627;48.838;2.402;2023-12-22T08:42:53;3.50;;;1.00;;
65853;SDS011;52627;48.838;2.402;2023-12-22T08:45:27;5.40;;;1.00;;
65853;SDS011;52627;48.838;2.402;2023-12-22T08:47:57;4.70;;;0.90;;
65853;SDS011;52627;48.838;2.402;2023-12-22T08:50:24;5.90;;;1.00;;
65853;SDS011;52627;48.838;2.402;2023-12-22T08:52:52;5.60;;;1.00;;
65853;SDS011;52627;48.838;2.402;2023-12-22T08:55:19;5.70;;;1.50;;
65853;SDS011;52627;48.838;2.402;2023-12-22T08:57:46;4.40;;;1.30;;
65853;SDS011;52627;48.838;2.402;2023-12-22T09:00:25;6.80;;;1.30;;
65853;SDS011;52627;48.838;2.402;2023-12-22T09:02:53;5.50;;;1.40;;
65853;SDS011;52627;48.838;2.402;2023-12-22T09:05:20;9.20;;;2.10;;
65853;SDS011;52627;48.838;2.402;2023-12-22T09:07:48;5.70;;;1.30;;
65853;SDS011;52627;48.838;2.402;2023-12-22T09:10:15;5.40;;;1.10;;
65853;SDS011;52627;48.838;2.402;2023-12-22T09:12:42;7.10;;;1.20;;
65853;SDS011;52627;48.838;2.402;2023-12-22T09:15:09;6.30;;;1.10;;
65853;SDS011;52627;48.838;2.402;2023-12-22T09:17:36;6.30;;;1.20;;
65853;SDS011;52627;48.838;2.402;2023-12-22T09:20:03;7.20;;;1.10;;
65853;SDS011;52627;48.838;2.402;2023-12-22T09:22:30;7.80;;;1.10;;
65853;SDS011;52627;48.838;2.402;2023-12-22T09:24:57;5.70;;;1.20;;
65853;SDS011;52627;48.838;2.402;2023-12-22T09:27:24;5.40;;;1.30;;
65853;SDS011;52627;48.838;2.402;2023-12-22T09:32:22;4.60;;;1.20;;
65853;SDS011;52627;48.838;2.402;2023-12-22T09:34:48;4.70;;;1.30;;
65853;SDS011;52627;48.838;2.402;2023-12-22T09:37:15;5.40;;;1.40;;
65853;SDS011;52627;48.838;2.402;2023-12-22T09:39:42;3.90;;;1.20;;
65853;SDS011;52627;48.838;2.402;2023-12-22T09:42:09;4.30;;;1.20;;
65853;SDS011;52627;48.838;2.402;2023-12-22T09:44:36;5.20;;;1.50;;
65853;SDS011;52627;48.838;2.402;2023-12-22T09:47:06;6.20;;;2.40;;
65853;SDS011;52627;48.838;2.402;2023-12-22T09:49:34;8.90;;;1.90;;
65853;SDS011;52627;48.838;2.402;2023-12-22T09:52:02;4.30;;;1.10;;
65853;SDS011;52627;48.838;2.402;2023-12-22T09:54:31;6.70;;;1.20;;
65853;SDS011;52627;48.838;2.402;2023-12-22T09:57:02;7.00;;;1.20;;
65853;SDS011;52627;48.838;2.402;2023-12-22T09:59:48;6.20;;;1.50;;
65853;SDS011;52627;48.838;2.402;2023-12-22T10:02:18;3.20;;;1.20;;
65853;SDS011;52627;48.838;2.402;2023-12-22T10:04:46;3.10;;;1.10;;
65853;SDS011;52627;48.838;2.402;2023-12-22T10:07:13;4.90;;;1.00;;
65853;SDS011;52627;48.838;2.402;2023-12-22T10:09:41;3.90;;;0.90;;
65853;SDS011;52627;48.838;2.402;2023-12-22T10:12:11;4.20;;;1.00;;
65853;SDS011;52627;48.838;2.402;2023-12-22T10:14:39;4.20;;;1.00;;
65853;SDS011;52627;48.838;2.402;2023-12-22T10:17:07;4.70;;;1.00;;
65853;SDS011;52627;48.838;2.402;2023-12-22T10:19:34;4.20;;;1.40;;
65853;SDS011;52627;48.838;2.402;2023-12-22T10:22:01;5.70;;;1.30;;
65853;SDS011;52627;48.838;2.402;2023-12-22T10:24:41;4.30;;;1.10;;
65853;SDS011;52627;48.838;2.402;2023-12-22T10:27:18;5.70;;;1.20;;
65853;SDS011;52627;48.838;2.402;2023-12-22T10:29:54;4.70;;;1.00;;
65853;SDS011;52627;48.838;2.402;2023-12-22T10:32:22;4.80;;;1.00;;
65853;SDS011;52627;48.838;2.402;2023-12-22T10:34:52;7.20;;;1.70;;
65853;SDS011;52627;48.838;2.402;2023-12-22T10:37:21;9.80;;;1.50;;
65853;SDS011;52627;48.838;2.402;2023-12-22T10:39:54;5.90;;;1.30;;
65853;SDS011;52627;48.838;2.402;2023-12-22T10:42:21;6.90;;;2.00;;
65853;SDS011;52627;48.838;2.402;2023-12-22T10:44:48;4.60;;;1.20;;
65853;SDS011;52627;48.838;2.402;2023-12-22T10:47:17;6.60;;;1.30;;
65853;SDS011;52627;48.838;2.402;2023-12-22T10:49:46;5.20;;;1.20;;
65853;SDS011;52627;48.838;2.402;2023-12-22T10:52:17;6.90;;;1.70;;
65853;SDS011;52627;48.838;2.402;2023-12-22T10:54:45;8.50;;;1.50;;
65853;SDS011;52627;48.838;2.402;2023-12-22T10:57:12;5.80;;;1.60;;
65853;SDS011;52627;48.838;2.402;2023-12-22T10:59:44;7.10;;;1.50;;
65853;SDS011;52627;48.838;2.402;2023-12-22T11:02:27;8.60;;;1.60;;
65853;SDS011;52627;48.838;2.402;2023-12-22T11:05:03;5.00;;;1.20;;
65853;SDS011;52627;48.838;2.402;2023-12-22T11:07:36;5.20;;;1.20;;
65853;SDS011;52627;48.838;2.402;2023-12-22T11:10:05;7.10;;;1.30;;
65853;SDS011;52627;48.838;2.402;2023-12-22T11:12:35;6.70;;;2.00;;
65853;SDS011;52627;48.838;2.402;2023-12-22T11:15:04;6.30;;;1.40;;
65853;SDS011;52627;48.838;2.402;2023-12-22T11:17:36;8.30;;;2.10;;
65853;SDS011;52627;48.838;2.402;2023-12-22T11:20:09;5.30;;;1.40;;
65853;SDS011;52627;48.838;2.402;2023-12-22T11:22:38;6.80;;;2.10;;
65853;SDS011;52627;48.838;2.402;2023-12-22T11:25:07;7.80;;;2.20;;
65853;SDS011;52627;48.838;2.402;2023-12-22T11:27:36;10.50;;;1.90;;
65853;SDS011;52627;48.838;2.402;2023-12-22T11:30:07;10.90;;;1.90;;
65853;SDS011;52627;48.838;2.402;2023-12-22T11:32:35;7.70;;;2.10;;
65853;SDS011;52627;48.838;2.402;2023-12-22T11:35:03;8.50;;;1.80;;
65853;SDS011;52627;48.838;2.402;2023-12-22T11:37:32;10.00;;;2.10;;
65853;SDS011;52627;48.838;2.402;2023-12-22T11:40:02;9.40;;;2.40;;
65853;SDS011;52627;48.838;2.402;2023-12-22T11:42:33;8.20;;;1.90;;
65853;SDS011;52627;48.838;2.402;2023-12-22T11:45:05;4.70;;;1.60;;
65853;SDS011;52627;48.838;2.402;2023-12-22T11:47:33;9.30;;;2.20;;
65853;SDS011;52627;48.838;2.402;2023-12-22T11:50:01;7.70;;;2.00;;
65853;SDS011;52627;48.838;2.402;2023-12-22T11:52:28;10.60;;;2.20;;
65853;SDS011;52627;48.838;2.402;2023-12-22T11:54:56;9.50;;;2.50;;
65853;SDS011;52627;48.838;2.402;2023-12-22T11:57:30;8.40;;;1.80;;
65853;SDS011;52627;48.838;2.402;2023-12-22T12:02:30;9.40;;;2.40;;
65853;SDS011;52627;48.838;2.402;2023-12-22T12:04:58;10.00;;;2.10;;
65853;SDS011;52627;48.838;2.402;2023-12-22T12:07:45;17.20;;;2.20;;
65853;SDS011;52627;48.838;2.402;2023-12-22T12:13:09;9.60;;;2.20;;
65853;SDS011;52627;48.838;2.402;2023-12-22T12:15:38;10.20;;;2.20;;
65853;SDS011;52627;48.838;2.402;2023-12-22T12:18:05;9.70;;;2.30;;
65853;SDS011;52627;48.838;2.402;2023-12-22T12:20:32;16.00;;;3.50;;
65853;SDS011;52627;48.838;2.402;2023-12-22T12:23:04;12.50;;;2.90;;
65853;SDS011;52627;48.838;2.402;2023-12-22T12:25:33;12.70;;;2.40;;
65853;SDS011;52627;48.838;2.402;2023-12-22T12:30:33;14.10;;;3.30;;
65853;SDS011;52627;48.838;2.402;2023-12-22T12:33:12;14.70;;;2.80;;
65853;SDS011;52627;48.838;2.402;2023-12-22T12:35:41;14.40;;;3.00;;
65853;SDS011;52627;48.838;2.402;2023-12-22T12:38:17;12.00;;;2.90;;
65853;SDS011;52627;48.838;2.402;2023-12-22T12:40:45;13.00;;;3.20;;
65853;SDS011;52627;48.838;2.402;2023-12-22T12:43:13;15.10;;;3.30;;
65853;SDS011;52627;48.838;2.402;2023-12-22T12:45:40;12.80;;;3.30;;
65853;SDS011;52627;48.838;2.402;2023-12-22T12:48:07;17.30;;;2.90;;
65853;SDS011;52627;48.838;2.402;2023-12-22T12:50:35;17.10;;;3.40;;
65853;SDS011;52627;48.838;2.402;2023-12-22T12:53:04;14.90;;;3.10;;
65853;SDS011;52627;48.838;2.402;2023-12-22T12:55:32;16.90;;;3.10;;
65853;SDS011;52627;48.838;2.402;2023-12-22T12:57:59;14.20;;;3.30;;
65853;SDS011;52627;48.838;2.402;2023-12-22T13:00:32;13.60;;;3.50;;
65853;SDS011;52627;48.838;2.402;2023-12-22T13:03:04;13.40;;;2.90;;
65853;SDS011;52627;48.838;2.402;2023-12-22T13:05:32;12.50;;;2.90;;
65853;SDS011;52627;48.838;2.402;2023-12-22T13:08:17;15.50;;;2.80;;
65853;SDS011;52627;48.838;2.402;2023-12-22T13:10:45;21.00;;;4.90;;
65853;SDS011;52627;48.838;2.402;2023-12-22T13:13:13;11.80;;;2.80;;
65853;SDS011;52627;48.838;2.402;2023-12-22T13:15:40;14.20;;;3.10;;
65853;SDS011;52627;48.838;2.402;2023-12-22T13:18:09;18.40;;;2.90;;
65853;SDS011;52627;48.838;2.402;2023-12-22T13:20:36;16.40;;;2.70;;
65853;SDS011;52627;48.838;2.402;2023-12-22T13:23:03;14.20;;;3.00;;
65853;SDS011;52627;48.838;2.402;2023-12-22T13:25:40;12.90;;;2.90;;
65853;SDS011;52627;48.838;2.402;2023-12-22T13:28:07;11.00;;;3.20;;
65853;SDS011;52627;48.838;2.402;2023-12-22T13:30:35;13.60;;;2.60;;
65853;SDS011;52627;48.838;2.402;2023-12-22T13:33:04;16.20;;;3.00;;
65853;SDS011;52627;48.838;2.402;2023-12-22T13:35:31;11.10;;;2.60;;
65853;SDS011;52627;48.838;2.402;2023-12-22T13:38:00;13.30;;;2.50;;
65853;SDS011;52627;48.838;2.402;2023-12-22T13:40:27;9.90;;;2.40;;
65853;SDS011;52627;48.838;2.402;2023-12-22T13:42:57;12.70;;;2.80;;
65853;SDS011;52627;48.838;2.402;2023-12-22T13:45:25;12.50;;;2.80;;
65853;SDS011;52627;48.838;2.402;2023-12-22T13:47:52;12.30;;;2.90;;
65853;SDS011;52627;48.838;2.402;2023-12-22T13:50:20;10.60;;;2.30;;
65853;SDS011;52627;48.838;2.402;2023-12-22T13:52:50;13.60;;;3.00;;
65853;SDS011;52627;48.838;2.402;2023-12-22T13:55:19;12.10;;;2.50;;
65853;SDS011;52627;48.838;2.402;2023-12-22T13:57:59;14.90;;;3.40;;
65853;SDS011;52627;48.838;2.402;2023-12-22T14:00:30;9.50;;;2.10;;
65853;SDS011;52627;48.838;2.402;2023-12-22T14:02:57;13.10;;;3.10;;
65853;SDS011;52627;48.838;2.402;2023-12-22T14:05:25;13.50;;;2.50;;
65853;SDS011;52627;48.838;2.402;2023-12-22T14:07:52;13.90;;;2.50;;
65853;SDS011;52627;48.838;2.402;2023-12-22T14:10:20;12.30;;;2.40;;
65853;SDS011;52627;48.838;2.402;2023-12-22T14:12:46;8.60;;;1.80;;
65853;SDS011;52627;48.838;2.402;2023-12-22T14:15:13;14.70;;;2.80;;
65853;SDS011;52627;48.838;2.402;2023-12-22T14:17:40;10.10;;;2.20;;
65853;SDS011;52627;48.838;2.402;2023-12-22T14:20:10;10.50;;;2.40;;
65853;SDS011;52627;48.838;2.402;2023-12-22T14:22:38;11.30;;;2.30;;
65853;SDS011;52627;48.838;2.402;2023-12-22T14:25:06;14.30;;;2.90;;
65853;SDS011;52627;48.838;2.402;2023-12-22T14:27:33;13.20;;;2.60;;
65853;SDS011;52627;48.838;2.402;2023-12-22T14:30:00;14.20;;;2.80;;
65853;SDS011;52627;48.838;2.402;2023-12-22T14:32:27;15.50;;;2.50;;
65853;SDS011;52627;48.838;2.402;2023-12-22T14:34:56;11.90;;;2.20;;
65853;SDS011;52627;48.838;2.402;2023-12-22T14:37:23;11.20;;;2.30;;
65853;SDS011;52627;48.838;2.402;2023-12-22T14:39:50;11.00;;;2.40;;
65853;SDS011;52627;48.838;2.402;2023-12-22T14:42:17;12.60;;;2.70;;
65853;SDS011;52627;48.838;2.402;2023-12-22T14:44:43;14.90;;;3.10;;
65853;SDS011;52627;48.838;2.402;2023-12-22T14:47:10;12.20;;;2.50;;
65853;SDS011;52627;48.838;2.402;2023-12-22T14:49:40;14.70;;;3.20;;
65853;SDS011;52627;48.838;2.402;2023-12-22T14:52:07;12.10;;;2.80;;
65853;SDS011;52627;48.838;2.402;2023-12-22T14:54:34;14.80;;;2.50;;
65853;SDS011;52627;48.838;2.402;2023-12-22T14:57:01;11.40;;;2.70;;
65853;SDS011;52627;48.838;2.402;2023-12-22T14:59:28;15.10;;;2.80;;
65853;SDS011;52627;48.838;2.402;2023-12-22T15:01:55;15.90;;;2.70;;